Time;durP1;ratioP1;P1;durP2;ratioP2;P2;SDS_P1;SDS_P2;PMS_P1;PMS_P2;Temp;Humidity;BMP_temperature;BMP_pressure;BME280_temperature;BME280_humidity;BME280_pressure;Samples;Min_cycle;Max_cycle;Signal;HPM_P1;HPM_P2
2022/12/20 00:01:53;;;;;;;;;;;;;;;5.34;73.44;99554.91;4975847;28;1616;-78
2022/12/20 00:04:19;;;;;;;;;;;;;;;5.35;73.12;99544.00;4990563;28;2201;-78
2022/12/20 00:06:46;;;;;;;;;;;;;;;5.31;73.63;99531.28;4983605;28;1182;-77
2022/12/20 00:09:12;;;;;;;;;;;;;;;5.36;73.17;99529.63;4989038;28;5111;-78
2022/12/20 00:11:39;;;;;;;;;;;;;;;5.32;73.58;99516.91;4969163;28;4585;-77
2022/12/20 00:14:06;;;;;;;;;;;;;;;5.33;73.40;99522.03;4987496;28;3683;-75
2022/12/20 00:16:32;;;;;;;;;;;;;;;5.33;73.64;99534.56;4980371;28;2196;-76
2022/12/20 00:19:00;;;;;;;;;;;;;;;5.35;73.29;99535.97;4972614;28;3940;-76
2022/12/20 00:21:26;;;;;;;;;;;;;;;5.39;73.17;99539.06;4990232;28;2708;-76
2022/12/20 00:23:53;;;;;;;;;;;;;;;5.33;73.15;99534.56;4969728;28;2864;-77
2022/12/20 00:26:19;;;;;;;;;;;;;;;5.40;73.16;99530.03;4979673;28;1024;-76
2022/12/20 00:28:45;;;;;;;;;;;;;;;5.44;73.01;99523.22;4969890;28;1948;-77
2022/12/20 00:31:12;;;;;;;;;;;;;;;5.56;72.59;99524.22;4991405;28;4374;-78
2022/12/20 00:33:38;;;;;;;;;;;;;;;5.38;73.10;99508.88;4990013;28;2051;-78
2022/12/20 00:36:05;;;;;;;;;;;;;;;5.36;73.28;99507.44;4994022;28;1906;-77
2022/12/20 00:38:32;;;;;;;;;;;;;;;5.42;73.09;99502.06;4964916;28;1386;-78
2022/12/20 00:40:58;;;;;;;;;;;;;;;5.48;72.71;99500.41;4984007;28;1408;-77
2022/12/20 00:43:25;;;;;;;;;;;;;;;5.44;73.09;99509.88;4979342;28;2059;-77
2022/12/20 00:45:51;;;;;;;;;;;;;;;5.42;73.08;99511.94;4978065;28;2338;-78
2022/12/20 00:48:18;;;;;;;;;;;;;;;5.38;73.33;99511.56;4988529;28;2323;-77
2022/12/20 00:50:44;;;;;;;;;;;;;;;5.36;73.36;99507.44;4978866;28;2034;-78
2022/12/20 00:53:11;;;;;;;;;;;;;;;5.49;73.06;99501.22;4959851;28;2050;-78
2022/12/20 00:55:37;;;;;;;;;;;;;;;5.59;72.67;99496.25;4963014;28;4087;-77
2022/12/20 00:58:04;;;;;;;;;;;;;;;5.46;72.76;99494.47;4976350;28;3187;-78
2022/12/20 01:00:30;;;;;;;;;;;;;;;5.55;72.82;99487.03;4977623;28;3067;-78
2022/12/20 01:02:57;;;;;;;;;;;;;;;5.48;73.00;99487.06;4977061;28;2173;-77
2022/12/20 01:05:23;;;;;;;;;;;;;;;5.58;72.61;99487.41;4955923;28;2140;-76
2022/12/20 01:07:50;;;;;;;;;;;;;;;5.61;72.57;99484.31;4984451;28;2154;-79
2022/12/20 01:10:17;;;;;;;;;;;;;;;5.49;72.88;99466.50;4970729;28;2194;-77
2022/12/20 01:12:43;;;;;;;;;;;;;;;5.45;72.99;99468.78;4979324;28;3070;-75
2022/12/20 01:15:10;;;;;;;;;;;;;;;5.57;72.62;99468.94;4959986;28;2380;-76
2022/12/20 01:17:36;;;;;;;;;;;;;;;5.72;72.14;99461.47;4976723;28;2248;-77
2022/12/20 01:20:03;;;;;;;;;;;;;;;5.61;72.39;99460.28;4984210;28;2393;-76
2022/12/20 01:22:29;;;;;;;;;;;;;;;5.73;72.20;99462.28;4981020;28;2205;-77
2022/12/20 01:24:56;;;;;;;;;;;;;;;5.61;72.77;99475.47;4975633;28;2665;-78
2022/12/20 01:27:22;;;;;;;;;;;;;;;5.72;72.25;99480.16;4955447;28;2155;-78
2022/12/20 01:29:49;;;;;;;;;;;;;;;5.74;72.04;99469.28;4958759;28;2348;-79
2022/12/20 01:32:15;;;;;;;;;;;;;;;5.59;72.74;99467.69;4957141;28;1969;-77
2022/12/20 01:34:42;;;;;;;;;;;;;;;5.71;72.34;99454.47;4956284;28;2396;-79
2022/12/20 01:37:09;;;;;;;;;;;;;;;5.60;72.42;99436.47;4960567;28;1978;-80
2022/12/20 01:39:35;;;;;;;;;;;;;;;5.70;72.12;99442.94;4966614;28;2421;-78
2022/12/20 01:42:02;;;;;;;;;;;;;;;5.74;72.30;99432.69;4966279;28;2598;-78
2022/12/20 01:44:28;;;;;;;;;;;;;;;5.67;72.27;99434.56;4957690;28;2262;-78
2022/12/20 01:46:55;;;;;;;;;;;;;;;5.73;72.13;99424.88;4958760;28;2410;-77
2022/12/20 01:49:21;;;;;;;;;;;;;;;5.73;72.28;99425.69;4957063;28;1973;-80
2022/12/20 01:51:48;;;;;;;;;;;;;;;5.89;71.77;99425.16;4956614;28;2115;-77
2022/12/20 01:54:14;;;;;;;;;;;;;;;5.91;71.46;99403.56;4959279;28;2066;-77
2022/12/20 01:56:41;;;;;;;;;;;;;;;5.85;71.72;99407.09;4961317;28;2278;-78
2022/12/20 01:59:07;;;;;;;;;;;;;;;5.87;71.68;99403.19;4956629;28;2506;-77
2022/12/20 02:01:34;;;;;;;;;;;;;;;5.83;71.99;99417.22;4956159;28;2412;-79
2022/12/20 02:04:00;;;;;;;;;;;;;;;5.83;71.67;99414.53;4952682;28;3212;-76
2022/12/20 02:06:27;;;;;;;;;;;;;;;5.86;71.75;99409.56;4956001;28;3288;-77
2022/12/20 02:08:53;;;;;;;;;;;;;;;5.75;72.33;99406.78;4961636;28;2279;-77
2022/12/20 02:11:20;;;;;;;;;;;;;;;5.90;71.53;99415.28;4961445;28;3628;-78
2022/12/20 02:13:46;;;;;;;;;;;;;;;5.78;71.98;99406.34;4963739;28;1998;-77
2022/12/20 02:16:13;;;;;;;;;;;;;;;5.90;71.79;99407.28;4954028;28;2112;-77
2022/12/20 02:18:40;;;;;;;;;;;;;;;5.82;71.91;99400.34;4971415;28;2475;-78
2022/12/20 02:21:06;;;;;;;;;;;;;;;5.82;72.17;99389.66;4957448;28;2857;-76
2022/12/20 02:23:33;;;;;;;;;;;;;;;5.87;71.85;99383.66;4957062;28;2249;-79
2022/12/20 02:26:00;;;;;;;;;;;;;;;5.83;71.78;99371.78;4959822;28;2189;-76
2022/12/20 02:28:26;;;;;;;;;;;;;;;5.81;71.95;99366.63;4977397;28;2209;-77
2022/12/20 02:30:56;;;;;;;;;;;;;;;5.92;71.60;99370.47;4981860;28;1910;-76
2022/12/20 02:33:22;;;;;;;;;;;;;;;5.80;72.19;99356.19;4975261;28;2357;-77
2022/12/20 02:35:49;;;;;;;;;;;;;;;5.79;72.03;99341.97;4973722;28;1949;-79
2022/12/20 02:38:15;;;;;;;;;;;;;;;5.93;71.44;99337.38;4975892;28;2291;-76
2022/12/20 02:40:42;;;;;;;;;;;;;;;5.88;72.06;99346.03;4983896;28;2639;-77
2022/12/20 02:45:14;;;;;;;;;;;;;;;5.85;72.14;99333.13;4980171;28;2063;-79
2022/12/20 02:45:57;;;;;;;;;;;;;;;5.84;71.80;99344.00;4983251;28;2302;-78
2022/12/20 02:48:23;;;;;;;;;;;;;;;5.89;71.84;99341.50;4962347;28;2407;-77
2022/12/20 02:50:49;;;;;;;;;;;;;;;5.80;72.13;99348.97;4980700;28;2198;-78
2022/12/20 02:53:16;;;;;;;;;;;;;;;5.89;71.83;99353.00;4958893;28;2035;-77
2022/12/20 02:55:43;;;;;;;;;;;;;;;5.92;71.58;99352.56;4961301;28;2178;-78
2022/12/20 02:58:09;;;;;;;;;;;;;;;5.93;71.66;99345.41;4979072;28;2013;-76
2022/12/20 03:00:36;;;;;;;;;;;;;;;5.85;71.86;99346.47;4984023;28;2370;-77
2022/12/20 03:05:46;;;;;;;;;;;;;;;5.84;72.22;99344.81;4981177;28;3367;-79
2022/12/20 03:08:13;;;;;;;;;;;;;;;5.83;71.96;99350.41;4975464;28;3145;-79
2022/12/20 03:10:40;;;;;;;;;;;;;;;5.75;72.31;99348.00;4971128;28;2544;-77
2022/12/20 03:13:06;;;;;;;;;;;;;;;5.83;71.99;99347.72;4979288;28;3073;-77
2022/12/20 03:15:32;;;;;;;;;;;;;;;5.82;72.20;99344.22;4982932;28;1984;-76
2022/12/20 03:17:59;;;;;;;;;;;;;;;5.78;72.40;99345.69;4977582;28;2173;-75
2022/12/20 03:20:25;;;;;;;;;;;;;;;5.86;72.22;99344.63;4974480;28;2099;-76
2022/12/20 03:22:52;;;;;;;;;;;;;;;5.78;72.24;99340.34;4974460;28;2262;-78
2022/12/20 03:25:18;;;;;;;;;;;;;;;5.73;72.73;99339.38;4980334;28;3073;-75
2022/12/20 03:27:45;;;;;;;;;;;;;;;5.79;72.51;99333.97;4955779;28;2306;-76
2022/12/20 03:30:12;;;;;;;;;;;;;;;5.81;72.07;99326.56;4965917;28;2744;-78
2022/12/20 03:32:38;;;;;;;;;;;;;;;5.73;72.34;99324.16;4962731;28;2468;-77
2022/12/20 03:35:05;;;;;;;;;;;;;;;5.81;72.40;99317.72;4958113;28;2200;-76
2022/12/20 03:37:31;;;;;;;;;;;;;;;5.78;72.19;99316.31;4977481;28;2606;-76
2022/12/20 03:39:58;;;;;;;;;;;;;;;5.74;72.71;99319.66;4987006;28;2350;-76
2022/12/20 03:42:25;;;;;;;;;;;;;;;5.83;72.43;99313.00;4978418;28;2438;-79
2022/12/20 03:44:51;;;;;;;;;;;;;;;5.81;71.97;99309.72;4963439;28;2086;-78
2022/12/20 03:47:18;;;;;;;;;;;;;;;5.75;72.42;99305.25;4979189;28;2058;-78
2022/12/20 03:49:44;;;;;;;;;;;;;;;5.79;72.47;99296.56;4961507;28;2383;-78
2022/12/20 03:52:11;;;;;;;;;;;;;;;5.67;72.84;99293.78;4978398;28;2129;-79
2022/12/20 03:54:37;;;;;;;;;;;;;;;5.74;72.48;99290.25;4977674;28;2205;-78
2022/12/20 03:57:04;;;;;;;;;;;;;;;5.70;72.57;99285.34;4977732;28;2095;-78
2022/12/20 03:59:30;;;;;;;;;;;;;;;5.65;72.96;99279.03;4977968;28;2189;-79
2022/12/20 04:01:57;;;;;;;;;;;;;;;5.69;72.68;99278.38;4984527;28;1984;-79
2022/12/20 04:04:23;;;;;;;;;;;;;;;5.61;72.91;99278.63;4964335;28;2036;-79
2022/12/20 04:06:50;;;;;;;;;;;;;;;5.73;72.61;99273.41;4995996;28;2152;-78
2022/12/20 04:09:16;;;;;;;;;;;;;;;5.60;72.95;99274.34;4983015;28;2261;-78
2022/12/20 04:11:43;;;;;;;;;;;;;;;5.72;72.59;99278.97;4988679;28;3928;-77
2022/12/20 04:14:10;;;;;;;;;;;;;;;5.70;72.97;99273.84;4977544;28;3175;-77
2022/12/20 04:16:36;;;;;;;;;;;;;;;5.59;72.98;99275.38;4981318;28;2074;-79
2022/12/20 04:19:03;;;;;;;;;;;;;;;5.66;72.93;99272.66;4977753;28;3168;-78
2022/12/20 04:21:29;;;;;;;;;;;;;;;5.61;73.08;99254.59;4978258;28;2027;-78
2022/12/20 04:23:56;;;;;;;;;;;;;;;5.66;72.88;99245.94;4979776;28;2342;-79
2022/12/20 04:26:22;;;;;;;;;;;;;;;5.66;72.79;99245.94;4959792;28;2003;-78
2022/12/20 04:28:49;;;;;;;;;;;;;;;5.63;72.61;99246.38;4958546;28;2199;-78
2022/12/20 04:31:15;;;;;;;;;;;;;;;5.60;72.93;99246.81;4978503;28;2725;-77
2022/12/20 04:33:42;;;;;;;;;;;;;;;5.56;73.24;99254.44;4982259;28;2125;-78
2022/12/20 04:36:08;;;;;;;;;;;;;;;5.56;73.35;99249.09;4981902;28;1990;-78
2022/12/20 04:38:35;;;;;;;;;;;;;;;5.53;73.44;99254.03;4965034;28;2036;-77
2022/12/20 04:41:01;;;;;;;;;;;;;;;5.72;72.75;99245.06;4992416;28;1990;-77
2022/12/20 04:43:28;;;;;;;;;;;;;;;5.57;73.46;99234.72;4996874;28;1613;-77
2022/12/20 04:45:56;;;;;;;;;;;;;;;5.65;72.89;99231.75;4996237;28;2218;-77
2022/12/20 04:48:23;;;;;;;;;;;;;;;5.58;72.97;99230.19;4974082;28;2669;-77
2022/12/20 04:50:49;;;;;;;;;;;;;;;5.69;72.47;99238.28;4990699;28;2045;-78
2022/12/20 04:56:00;;;;;;;;;;;;;;;5.54;73.43;99242.34;4977916;28;2267;-77
2022/12/20 04:58:27;;;;;;;;;;;;;;;5.47;73.62;99239.72;4988309;28;2177;-77
2022/12/20 05:00:53;;;;;;;;;;;;;;;5.50;73.45;99241.97;4988266;28;2127;-77
2022/12/20 05:03:20;;;;;;;;;;;;;;;5.50;73.44;99238.47;4992618;28;1348;-77
2022/12/20 05:05:46;;;;;;;;;;;;;;;5.59;73.12;99238.00;4980127;28;2012;-77
2022/12/20 05:08:13;;;;;;;;;;;;;;;5.45;73.60;99226.59;4988192;28;2197;-77
2022/12/20 05:10:40;;;;;;;;;;;;;;;5.50;73.34;99236.63;4967000;28;2293;-77
2022/12/20 05:13:06;;;;;;;;;;;;;;;5.61;72.97;99233.22;4972772;28;2271;-78
2022/12/20 05:15:33;;;;;;;;;;;;;;;5.50;73.46;99238.47;4983418;28;4021;-77
2022/12/20 05:17:59;;;;;;;;;;;;;;;5.66;72.83;99227.22;4989358;28;3331;-77
2022/12/20 05:20:26;;;;;;;;;;;;;;;5.51;73.49;99237.44;4991956;28;2580;-78
2022/12/20 05:28:20;;;;;;;;;;;;;;;5.50;73.40;99233.97;4992895;28;2013;-77
2022/12/20 05:30:47;;;;;;;;;;;;;;;5.56;73.28;99232.25;4991844;28;2024;-76
2022/12/20 05:33:13;;;;;;;;;;;;;;;5.51;73.29;99226.75;4988225;28;2670;-76
2022/12/20 05:35:40;;;;;;;;;;;;;;;5.54;73.29;99224.47;4990719;28;2101;-77
2022/12/20 05:38:06;;;;;;;;;;;;;;;5.64;72.94;99229.28;4989456;28;2111;-77
2022/12/20 05:40:34;;;;;;;;;;;;;;;5.54;73.38;99237.00;4992567;28;2090;-78
2022/12/20 05:43:01;;;;;;;;;;;;;;;5.60;73.14;99242.28;4969421;28;2210;-79
2022/12/20 05:45:27;;;;;;;;;;;;;;;5.55;73.36;99239.44;4975487;28;2558;-77
2022/12/20 05:47:54;;;;;;;;;;;;;;;5.66;72.84;99237.91;4981456;28;2289;-77
2022/12/20 05:50:21;;;;;;;;;;;;;;;5.61;73.17;99240.44;4959113;28;2026;-78
2022/12/20 05:52:47;;;;;;;;;;;;;;;5.58;73.22;99228.31;4976064;28;2541;-78
2022/12/20 05:55:14;;;;;;;;;;;;;;;5.69;72.79;99234.81;4960572;28;2127;-78
2022/12/20 05:57:40;;;;;;;;;;;;;;;5.70;72.55;99229.22;4976150;28;2168;-77
2022/12/20 06:00:07;;;;;;;;;;;;;;;5.78;72.44;99232.66;4980840;28;2069;-79
2022/12/20 06:02:33;;;;;;;;;;;;;;;5.61;72.91;99240.44;4985521;28;2052;-77
2022/12/20 06:05:01;;;;;;;;;;;;;;;5.80;72.65;99239.44;4959275;28;2053;-76
2022/12/20 06:07:28;;;;;;;;;;;;;;;5.72;72.70;99238.91;4974388;28;1961;-77
2022/12/20 06:09:55;;;;;;;;;;;;;;;5.61;73.07;99243.09;4975734;28;2122;-78
2022/12/20 06:12:21;;;;;;;;;;;;;;;5.69;72.60;99232.13;4977105;28;2119;-80
2022/12/20 06:14:48;;;;;;;;;;;;;;;5.78;72.62;99232.66;4959122;28;2168;-77
2022/12/20 06:17:14;;;;;;;;;;;;;;;5.78;72.41;99236.16;4981321;28;2082;-77
2022/12/20 06:19:41;;;;;;;;;;;;;;;5.72;72.49;99231.69;4982120;28;2131;-80
2022/12/20 06:22:08;;;;;;;;;;;;;;;5.69;72.74;99234.81;4979704;28;2226;-80
2022/12/20 06:24:34;;;;;;;;;;;;;;;5.80;72.24;99238.63;4959583;28;3513;-77
2022/12/20 06:27:01;;;;;;;;;;;;;;;5.76;72.63;99248.09;4977603;28;2757;-78
2022/12/20 06:29:28;;;;;;;;;;;;;;;5.79;72.44;99253.81;4979541;28;3305;-79
2022/12/20 06:31:54;;;;;;;;;;;;;;;5.87;72.30;99266.91;4983397;28;2835;-79
2022/12/20 06:34:21;;;;;;;;;;;;;;;5.81;72.54;99258.94;4965620;28;2069;-76
2022/12/20 06:36:47;;;;;;;;;;;;;;;5.81;72.55;99261.63;4980782;28;1954;-78
2022/12/20 06:39:14;;;;;;;;;;;;;;;5.84;72.48;99264.66;4979465;28;2066;-79
2022/12/20 06:41:40;;;;;;;;;;;;;;;5.86;72.17;99259.13;4980454;28;2499;-78
2022/12/20 06:44:07;;;;;;;;;;;;;;;5.77;72.47;99255.91;4983142;28;3123;-79
2022/12/20 06:46:34;;;;;;;;;;;;;;;5.85;72.36;99260.13;4985117;28;2292;-79
2022/12/20 06:49:00;;;;;;;;;;;;;;;5.82;72.51;99261.38;4987451;28;2135;-78
2022/12/20 06:51:27;;;;;;;;;;;;;;;5.83;72.20;99259.56;4988574;28;2837;-78
2022/12/20 06:53:53;;;;;;;;;;;;;;;5.85;72.48;99257.47;4971950;28;2277;-78
2022/12/20 06:56:20;;;;;;;;;;;;;;;5.81;72.50;99259.75;4993160;28;2893;-78
2022/12/20 06:58:46;;;;;;;;;;;;;;;5.90;72.24;99262.97;4989517;28;2194;-79
2022/12/20 07:01:13;;;;;;;;;;;;;;;5.89;72.50;99258.66;4970964;28;2230;-78
2022/12/20 07:03:39;;;;;;;;;;;;;;;5.83;72.28;99263.03;4978719;28;2044;-78
2022/12/20 07:06:06;;;;;;;;;;;;;;;5.86;72.14;99259.13;4994298;28;2059;-78
2022/12/20 07:08:32;;;;;;;;;;;;;;;5.84;72.54;99259.31;4975636;28;2315;-78
2022/12/20 07:10:59;;;;;;;;;;;;;;;5.85;72.54;99263.66;4986131;28;2194;-78
2022/12/20 07:13:25;;;;;;;;;;;;;;;5.85;72.53;99262.81;4973529;28;2644;-78
2022/12/20 07:15:52;;;;;;;;;;;;;;;5.90;72.38;99261.09;4990911;28;2392;-78
2022/12/20 07:18:19;;;;;;;;;;;;;;;5.84;72.35;99262.00;4975532;28;2176;-78
2022/12/20 07:20:45;;;;;;;;;;;;;;;5.84;72.43;99259.31;4990922;28;2665;-79
2022/12/20 07:23:12;;;;;;;;;;;;;;;5.89;72.02;99254.13;4982154;28;2263;-78
2022/12/20 07:25:38;;;;;;;;;;;;;;;5.86;72.35;99269.81;4985233;28;3860;-78
2022/12/20 07:28:05;;;;;;;;;;;;;;;5.81;72.80;99266.97;4992195;28;3262;-78
2022/12/20 07:30:32;;;;;;;;;;;;;;;5.78;72.50;99275.41;4980083;28;3197;-78
2022/12/20 07:32:58;;;;;;;;;;;;;;;5.84;72.23;99274.53;4978103;28;2009;-78
2022/12/20 07:35:25;;;;;;;;;;;;;;;5.75;72.86;99279.34;4993030;28;2124;-77
2022/12/20 07:37:52;;;;;;;;;;;;;;;5.78;72.73;99278.09;4984802;28;2172;-78
2022/12/20 07:40:18;;;;;;;;;;;;;;;5.83;72.42;99271.06;4981684;28;2117;-78
2022/12/20 07:42:45;;;;;;;;;;;;;;;5.73;72.81;99275.25;4963333;28;2371;-78
2022/12/20 07:45:11;;;;;;;;;;;;;;;5.69;73.14;99275.69;4980329;28;2044;-79
2022/12/20 07:47:38;;;;;;;;;;;;;;;5.73;72.89;99275.25;4979258;28;2346;-78
2022/12/20 07:50:04;;;;;;;;;;;;;;;5.75;72.85;99281.19;4960234;28;2157;-79
2022/12/20 07:52:31;;;;;;;;;;;;;;;5.74;73.19;99285.72;4981213;28;2461;-79
2022/12/20 07:54:57;;;;;;;;;;;;;;;5.74;72.89;99288.41;4974892;28;2609;-79
2022/12/20 07:57:24;;;;;;;;;;;;;;;5.82;72.72;99285.44;4977976;28;2188;-79
2022/12/20 07:59:50;;;;;;;;;;;;;;;5.68;73.01;99292.75;4978660;28;2168;-78
2022/12/20 08:02:17;;;;;;;;;;;;;;;5.68;73.14;99289.28;4981561;28;2535;-80
2022/12/20 08:04:43;;;;;;;;;;;;;;;5.77;73.03;99289.81;4980298;28;1986;-79
2022/12/20 08:07:10;;;;;;;;;;;;;;;5.70;72.92;99289.84;4979026;28;2011;-79
2022/12/20 08:09:36;;;;;;;;;;;;;;;5.76;72.75;99283.63;4954425;28;2207;-78
2022/12/20 08:12:03;;;;;;;;;;;;;;;5.81;72.67;99288.34;4958262;28;2131;-77
2022/12/20 08:14:29;;;;;;;;;;;;;;;5.68;73.00;99282.09;4965954;28;2046;-79
2022/12/20 08:16:56;;;;;;;;;;;;;;;5.69;73.14;99286.38;4980316;28;2398;-77
2022/12/20 08:19:23;;;;;;;;;;;;;;;5.75;72.95;99289.22;4975542;28;2334;-77
2022/12/20 08:21:49;;;;;;;;;;;;;;;5.79;72.82;99293.06;4981367;28;2238;-77
2022/12/20 08:24:16;;;;;;;;;;;;;;;5.83;72.58;99295.09;4963417;28;2124;-78
2022/12/20 08:26:42;;;;;;;;;;;;;;;5.77;72.62;99303.19;4965806;28;2108;-78
2022/12/20 08:29:09;;;;;;;;;;;;;;;5.69;72.99;99302.41;4977754;28;2671;-80
2022/12/20 08:31:35;;;;;;;;;;;;;;;5.68;72.87;99290.09;4959538;28;3695;-78
2022/12/20 08:34:02;;;;;;;;;;;;;;;5.68;73.23;99287.44;4958396;28;3242;-77
2022/12/20 08:36:28;;;;;;;;;;;;;;;5.57;73.28;99300.66;4982005;28;2043;-79
2022/12/20 08:38:55;;;;;;;;;;;;;;;5.80;72.81;99300.06;4962006;28;2402;-80
2022/12/20 08:41:21;;;;;;;;;;;;;;;5.73;73.05;99297.44;4963847;28;2068;-79
2022/12/20 08:43:48;;;;;;;;;;;;;;;5.65;73.13;99300.41;4983094;28;2353;-79
2022/12/20 08:46:14;;;;;;;;;;;;;;;5.74;72.94;99300.94;4980981;28;2088;-80
2022/12/20 08:48:41;;;;;;;;;;;;;;;5.74;72.80;99304.44;4977551;28;2182;-80
2022/12/20 08:51:08;;;;;;;;;;;;;;;5.59;73.40;99314.59;4983913;28;2362;-80
2022/12/20 08:53:34;;;;;;;;;;;;;;;5.66;73.00;99315.38;4981689;28;2098;-80
2022/12/20 08:56:01;;;;;;;;;;;;;;;5.63;73.47;99311.28;4982556;28;2144;-81
2022/12/20 08:58:27;;;;;;;;;;;;;;;5.63;73.38;99321.97;4977390;28;2265;-80
2022/12/20 09:00:54;;;;;;;;;;;;;;;5.74;72.87;99316.97;4955368;28;2126;-79
2022/12/20 09:03:21;;;;;;;;;;;;;;;5.62;73.47;99320.34;4963592;28;2291;-81
2022/12/20 09:05:47;;;;;;;;;;;;;;;5.73;72.99;99316.13;4965492;28;2312;-79
2022/12/20 09:08:14;;;;;;;;;;;;;;;5.55;73.67;99318.75;4976925;28;2269;-80
2022/12/20 09:10:40;;;;;;;;;;;;;;;5.57;73.60;99304.16;4970728;28;2657;-81
2022/12/20 09:13:07;;;;;;;;;;;;;;;5.57;73.33;99296.13;4984802;28;2336;-80
2022/12/20 09:15:33;;;;;;;;;;;;;;;5.59;73.47;99296.75;4978930;28;2163;-80
2022/12/20 09:18:00;;;;;;;;;;;;;;;5.54;73.61;99299.25;4952312;28;2093;-81
2022/12/20 09:20:26;;;;;;;;;;;;;;;5.64;73.53;99312.91;4967402;28;2363;-80
2022/12/20 09:22:53;;;;;;;;;;;;;;;5.56;73.58;99315.88;4954710;28;2199;-81
2022/12/20 09:25:20;;;;;;;;;;;;;;;5.50;73.71;99322.09;4955631;28;2325;-81
2022/12/20 09:27:46;;;;;;;;;;;;;;;5.42;74.00;99325.03;4973089;28;2297;-81
2022/12/20 09:30:13;;;;;;;;;;;;;;;5.53;73.85;99313.66;4974519;28;2895;-80
2022/12/20 09:32:39;;;;;;;;;;;;;;;5.56;73.73;99320.38;4977150;28;2132;-80
2022/12/20 09:35:06;;;;;;;;;;;;;;;5.51;73.62;99320.22;4972460;28;2409;-79
2022/12/20 09:37:33;;;;;;;;;;;;;;;5.55;73.67;99332.09;4956565;28;2297;-80
2022/12/20 09:39:59;;;;;;;;;;;;;;;5.60;73.25;99325.09;4954708;28;4257;-80
2022/12/20 09:42:26;;;;;;;;;;;;;;;5.58;73.58;99323.66;4971925;28;2335;-80
2022/12/20 09:44:52;;;;;;;;;;;;;;;5.43;73.89;99323.97;4972341;28;3122;-81
2022/12/20 09:47:19;;;;;;;;;;;;;;;5.51;73.81;99320.22;4968574;28;2278;-80
2022/12/20 09:49:45;;;;;;;;;;;;;;;5.55;73.70;99334.78;4973391;28;2234;-79
2022/12/20 09:52:12;;;;;;;;;;;;;;;5.49;73.98;99333.78;4975192;28;2475;-79
2022/12/20 09:54:39;;;;;;;;;;;;;;;5.40;73.88;99338.56;4959724;28;2167;-79
2022/12/20 09:57:05;;;;;;;;;;;;;;;5.47;73.89;99333.19;4976021;28;2209;-80
2022/12/20 09:59:32;;;;;;;;;;;;;;;5.54;73.82;99330.47;4970526;28;2166;-80
2022/12/20 10:01:59;;;;;;;;;;;;;;;5.45;73.97;99314.72;4977675;28;2254;-80
2022/12/20 10:04:25;;;;;;;;;;;;;;;5.44;74.01;99318.44;4971977;28;2296;-79
2022/12/20 10:06:52;;;;;;;;;;;;;;;5.44;74.01;99318.44;4958948;28;2168;-80
2022/12/20 10:09:18;;;;;;;;;;;;;;;5.47;73.88;99325.16;4956244;28;2771;-79
2022/12/20 10:11:47;;;;;;;;;;;;;;;5.43;74.12;99314.09;4954600;28;2612;-79
2022/12/20 10:14:13;;;;;;;;;;;;;;;5.53;73.65;99312.81;4976707;28;2109;-79
2022/12/20 10:16:41;;;;;;;;;;;;;;;5.43;73.96;99319.44;4973761;28;2268;-79
2022/12/20 10:19:07;;;;;;;;;;;;;;;5.41;74.10;99310.84;4975054;28;2242;-80
2022/12/20 10:21:34;;;;;;;;;;;;;;;5.36;74.29;99313.34;4952501;28;2344;-79
2022/12/20 10:24:01;;;;;;;;;;;;;;;5.34;74.43;99319.94;4954644;28;2207;-79
2022/12/20 10:26:27;;;;;;;;;;;;;;;5.38;74.03;99321.13;4973690;28;2756;-79
2022/12/20 10:28:54;;;;;;;;;;;;;;;5.44;73.95;99326.44;4974703;28;2106;-79
2022/12/20 10:31:20;;;;;;;;;;;;;;;5.38;74.03;99329.13;4968160;28;2383;-79
2022/12/20 10:33:47;;;;;;;;;;;;;;;5.42;74.01;99330.34;4975911;28;2090;-78
2022/12/20 10:36:14;;;;;;;;;;;;;;;5.30;74.54;99342.75;4973039;28;2093;-79
2022/12/20 10:38:40;;;;;;;;;;;;;;;5.36;74.30;99345.38;4959661;28;2188;-79
2022/12/20 10:41:07;;;;;;;;;;;;;;;5.32;74.23;99346.03;4978075;28;2123;-79
2022/12/20 10:43:33;;;;;;;;;;;;;;;5.33;74.45;99347.69;4972720;28;2473;-79
2022/12/20 10:46:00;;;;;;;;;;;;;;;5.35;74.25;99350.94;4971817;28;3460;-79
2022/12/20 10:48:27;;;;;;;;;;;;;;;5.38;74.12;99348.66;4976960;28;3131;-79
2022/12/20 10:50:54;;;;;;;;;;;;;;;5.40;74.02;99341.25;4956764;28;3068;-80
2022/12/20 10:53:21;;;;;;;;;;;;;;;5.28;74.42;99334.97;4959036;28;2055;-79
2022/12/20 10:55:47;;;;;;;;;;;;;;;5.27;74.69;99340.53;4975794;28;2171;-79
2022/12/20 10:58:13;;;;;;;;;;;;;;;5.24;74.69;99329.22;4972207;28;2202;-80
2022/12/20 11:00:40;;;;;;;;;;;;;;;5.20;74.60;99327.19;4960553;28;2457;-79
2022/12/20 11:03:07;;;;;;;;;;;;;;;5.28;74.54;99324.28;4976318;28;2306;-79
2022/12/20 11:05:33;;;;;;;;;;;;;;;5.31;74.56;99326.50;4965739;28;2256;-81
2022/12/20 11:08:00;;;;;;;;;;;;;;;5.23;74.66;99321.44;4980799;28;2348;-79
2022/12/20 11:10:26;;;;;;;;;;;;;;;5.27;74.49;99319.16;4977660;28;2239;-79
2022/12/20 11:12:53;;;;;;;;;;;;;;;5.27;74.63;99321.84;4958144;28;2125;-79
2022/12/20 11:15:19;;;;;;;;;;;;;;;5.25;74.51;99316.69;4958182;28;2707;-80
2022/12/20 11:17:47;;;;;;;;;;;;;;;5.21;74.76;99312.84;4974344;28;2427;-79
2022/12/20 11:20:14;;;;;;;;;;;;;;;5.22;74.65;99303.78;4959418;28;2567;-79
2022/12/20 11:22:40;;;;;;;;;;;;;;;5.29;74.43;99301.88;4961996;28;2242;-79
2022/12/20 11:25:07;;;;;;;;;;;;;;;5.36;74.22;99294.66;4980468;28;2135;-78
2022/12/20 11:27:33;;;;;;;;;;;;;;;5.23;74.50;99295.56;4977293;28;5054;-78
2022/12/20 11:30:00;;;;;;;;;;;;;;;5.31;74.38;99297.16;4967116;28;5063;-79
2022/12/20 11:32:27;;;;;;;;;;;;;;;5.24;74.58;99293.72;4984100;28;2364;-80
2022/12/20 11:34:53;;;;;;;;;;;;;;;5.24;74.53;99293.72;4980927;28;3603;-79
2022/12/20 11:37:20;;;;;;;;;;;;;;;5.29;74.40;99293.88;4980354;28;2205;-79
2022/12/20 11:39:46;;;;;;;;;;;;;;;5.29;74.21;99287.72;4977373;28;2360;-79
2022/12/20 11:42:14;;;;;;;;;;;;;;;5.23;74.63;99292.91;4984830;28;2650;-80
2022/12/20 11:44:42;;;;;;;;;;;;;;;5.31;74.32;99289.13;4977472;28;4582;-79
2022/12/20 11:47:08;;;;;;;;;;;;;;;5.19;74.60;99291.69;4975502;28;2699;-77
2022/12/20 11:49:36;;;;;;;;;;;;;;;5.20;74.59;99279.16;4959070;28;3913;-76
2022/12/20 11:52:02;;;;;;;;;;;;;;;5.24;74.59;99272.38;4960084;28;2631;-79
2022/12/20 11:54:31;;;;;;;;;;;;;;;5.18;74.79;99289.25;4979261;28;2851;-79
2022/12/20 11:56:57;;;;;;;;;;;;;;;5.34;74.39;99286.03;4976778;28;2590;-76
2022/12/20 11:59:24;;;;;;;;;;;;;;;5.32;74.25;99280.09;4979930;28;2695;-78
2022/12/20 12:01:50;;;;;;;;;;;;;;;5.23;74.65;99278.72;4979367;28;2495;-78
2022/12/20 12:04:17;;;;;;;;;;;;;;;5.29;74.43;99283.19;4980190;28;2447;-77
2022/12/20 12:06:46;;;;;;;;;;;;;;;5.31;74.35;99281.13;4979464;28;2530;-79
2022/12/20 12:09:13;;;;;;;;;;;;;;;5.23;74.46;99271.53;4963078;28;2655;-79
2022/12/20 12:11:39;;;;;;;;;;;;;;;5.21;74.87;99280.81;4978891;28;2599;-76
2022/12/20 12:14:06;;;;;;;;;;;;;;;5.22;74.62;99280.56;4977123;28;2586;-81
2022/12/20 12:16:32;;;;;;;;;;;;;;;5.20;74.88;99285.28;4964970;28;2579;-78
2022/12/20 12:18:59;;;;;;;;;;;;;;;5.27;74.50;99287.13;4964557;28;2451;-79
2022/12/20 12:21:25;;;;;;;;;;;;;;;5.35;74.24;99271.63;4978038;28;2545;-78
2022/12/20 12:23:52;;;;;;;;;;;;;;;5.20;74.58;99271.13;4959370;28;3013;-78
2022/12/20 12:26:18;;;;;;;;;;;;;;;5.27;74.51;99260.44;4970594;28;2364;-80
2022/12/20 12:28:45;;;;;;;;;;;;;;;5.32;74.35;99264.06;4969664;28;2357;-79
2022/12/20 12:31:12;;;;;;;;;;;;;;;5.19;74.88;99250.81;4968885;28;2614;-77
2022/12/20 12:33:38;;;;;;;;;;;;;;;5.27;74.44;99250.56;4964064;28;4272;-79
2022/12/20 12:36:05;;;;;;;;;;;;;;;5.19;74.63;99240.97;4967172;28;3871;-79
2022/12/20 12:38:32;;;;;;;;;;;;;;;5.17;74.93;99244.88;4975488;28;2286;-79
2022/12/20 12:40:59;;;;;;;;;;;;;;;5.28;74.66;99244.19;4976151;28;2317;-81
2022/12/20 12:43:25;;;;;;;;;;;;;;;5.24;74.54;99229.66;4973253;28;5867;-79
2022/12/20 12:45:52;;;;;;;;;;;;;;;5.18;74.69;99222.50;4974836;28;4149;-78
2022/12/20 12:48:18;;;;;;;;;;;;;;;5.19;74.73;99224.13;4978911;28;2460;-78
2022/12/20 12:50:45;;;;;;;;;;;;;;;5.24;74.62;99224.31;4976092;28;4616;-81
2022/12/20 12:53:11;;;;;;;;;;;;;;;5.23;74.72;99218.16;4986997;28;2641;-79
2022/12/20 12:55:38;;;;;;;;;;;;;;;5.19;74.73;99218.78;4962587;28;3407;-81
2022/12/20 12:58:05;;;;;;;;;;;;;;;5.22;75.05;99213.03;4961523;28;2246;-80
2022/12/20 13:00:31;;;;;;;;;;;;;;;5.17;74.77;99213.66;4973760;28;2157;-78
2022/12/20 13:02:58;;;;;;;;;;;;;;;5.24;74.72;99218.97;4978237;28;2295;-79
2022/12/20 13:05:24;;;;;;;;;;;;;;;5.24;74.57;99216.31;4977328;28;2272;-79
2022/12/20 13:07:52;;;;;;;;;;;;;;;5.10;75.03;99212.91;4979656;28;3644;-79
2022/12/20 13:10:19;;;;;;;;;;;;;;;5.13;75.23;99206.31;4975408;28;2320;-79
2022/12/20 13:12:45;;;;;;;;;;;;;;;5.07;75.40;99216.00;4956953;28;3123;-79
2022/12/20 13:15:12;;;;;;;;;;;;;;;5.28;74.49;99206.00;4976290;28;2517;-80